createdAt,value
2022-11-28T00:00:14.768Z,4.99
2022-11-28T00:02:42.836Z,5.02
2022-11-28T00:05:11.918Z,4.99
2022-11-28T00:08:00.970Z,4.88
2022-11-28T00:10:33.753Z,4.76
2022-11-28T00:13:01.449Z,4.68
2022-11-28T00:15:29.063Z,4.66
2022-11-28T00:17:56.687Z,4.66
2022-11-28T00:20:24.395Z,4.70
2022-11-28T00:22:52.175Z,4.72
2022-11-28T00:25:19.792Z,4.69
2022-11-28T00:27:49.023Z,4.66
2022-11-28T00:30:17.004Z,4.87
2022-11-28T00:32:45.677Z,4.94
2022-11-28T00:35:13.323Z,4.86
2022-11-28T00:37:47.126Z,4.91
2022-11-28T00:43:13.286Z,5.50
2022-11-28T00:49:16.768Z,5.37
2022-11-28T00:51:56.644Z,5.60
2022-11-28T00:54:25.564Z,5.59
2022-11-28T00:56:55.319Z,5.52
2022-11-28T00:59:24.762Z,5.35
2022-11-28T01:01:52.752Z,5.15
2022-11-28T01:04:22.078Z,5.15
2022-11-28T01:06:51.540Z,5.03
2022-11-28T01:09:22.740Z,5.16
2022-11-28T01:12:03.581Z,5.29
2022-11-28T01:14:32.642Z,5.30
2022-11-28T01:17:25.949Z,5.31
2022-11-28T01:19:53.565Z,5.31
2022-11-28T01:22:21.135Z,5.22
2022-11-28T01:24:48.731Z,5.19
2022-11-28T01:27:16.310Z,5.10
2022-11-28T01:29:45.259Z,4.89
2022-11-28T01:32:12.872Z,4.80
2022-11-28T01:34:40.789Z,4.80
2022-11-28T01:37:08.860Z,4.74
2022-11-28T01:39:36.569Z,5.00
2022-11-28T01:42:04.332Z,5.02
2022-11-28T01:45:05.174Z,5.00
2022-11-28T01:47:34.935Z,5.03
2022-11-28T01:50:04.919Z,4.86
2022-11-28T01:52:32.681Z,4.97
2022-11-28T01:55:02.733Z,5.24
2022-11-28T01:57:30.708Z,4.99
2022-11-28T02:00:03.736Z,4.82
2022-11-28T02:02:38.747Z,4.69
2022-11-28T02:05:07.155Z,4.59
2022-11-28T02:07:35.537Z,4.55
2022-11-28T02:10:06.983Z,4.56
2022-11-28T02:13:10.888Z,4.92
2022-11-28T02:16:03.322Z,5.32
2022-11-28T02:18:50.447Z,5.09
2022-11-28T02:21:28.368Z,4.87
2022-11-28T02:24:27.468Z,4.73
2022-11-28T02:27:12.853Z,4.69
2022-11-28T02:30:10.448Z,4.76
2022-11-28T02:32:58.914Z,4.76
2022-11-28T02:35:35.471Z,4.71
2022-11-28T02:38:10.111Z,4.66
2022-11-28T02:40:41.007Z,4.61
2022-11-28T02:43:15.774Z,4.61
2022-11-28T02:45:51.123Z,4.60
2022-11-28T02:48:28.624Z,4.54
2022-11-28T02:51:03.198Z,4.53
2022-11-28T02:53:34.725Z,4.56
2022-11-28T02:56:02.828Z,4.57
2022-11-28T02:58:30.563Z,4.55
2022-11-28T03:00:58.449Z,4.56
2022-11-28T03:03:57.035Z,4.53
2022-11-28T03:06:38.614Z,4.54
2022-11-28T03:09:36.848Z,4.52
2022-11-28T03:12:15.795Z,4.52
2022-11-28T03:14:51.930Z,4.50
2022-11-28T03:17:25.211Z,4.47
2022-11-28T03:20:01.548Z,4.46
2022-11-28T03:22:34.414Z,4.49
2022-11-28T03:25:09.494Z,4.55
2022-11-28T03:27:42.435Z,4.59
2022-11-28T03:30:15.600Z,4.56
2022-11-28T03:32:45.082Z,4.55
2022-11-28T03:35:18.040Z,4.52
2022-11-28T03:37:49.792Z,4.52
2022-11-28T03:40:23.151Z,4.55
2022-11-28T03:42:55.674Z,4.69
2022-11-28T03:45:26.098Z,4.71
2022-11-28T03:47:59.528Z,4.64
2022-11-28T03:50:35.035Z,4.59
2022-11-28T03:53:06.314Z,4.53
2022-11-28T03:55:38.957Z,4.66
2022-11-28T03:58:13.575Z,4.70
2022-11-28T04:00:52.127Z,4.63
2022-11-28T04:03:28.003Z,4.59
2022-11-28T04:06:01.162Z,4.57
2022-11-28T04:08:33.316Z,4.53
2022-11-28T04:11:07.141Z,4.56
2022-11-28T04:13:38.887Z,4.52
2022-11-28T04:16:13.908Z,5.02
2022-11-28T04:18:52.143Z,5.42
2022-11-28T04:21:27.850Z,5.33
2022-11-28T04:23:59.669Z,5.37
2022-11-28T04:26:32.098Z,5.31
2022-11-28T04:29:03.467Z,5.40
2022-11-28T04:31:32.213Z,5.29
2022-11-28T04:34:03.567Z,5.44
2022-11-28T04:36:35.829Z,5.32
2022-11-28T04:39:06.658Z,5.19
2022-11-28T04:41:39.480Z,4.98
2022-11-28T04:44:13.235Z,5.15
2022-11-28T04:46:44.147Z,4.99
2022-11-28T04:49:13.005Z,4.84
2022-11-28T04:51:47.191Z,4.73
2022-11-28T04:54:20.441Z,4.67
2022-11-28T04:56:54.131Z,4.81
2022-11-28T04:59:26.297Z,4.72
2022-11-28T05:01:54.934Z,5.03
2022-11-28T05:04:22.798Z,5.07
2022-11-28T05:06:52.137Z,5.01
2022-11-28T05:09:19.760Z,5.23
2022-11-28T05:11:47.373Z,5.36
2022-11-28T05:14:18.902Z,5.41
2022-11-28T05:16:46.583Z,5.31
2022-11-28T05:19:14.287Z,5.26
2022-11-28T05:21:41.923Z,4.92
2022-11-28T05:24:11.090Z,4.92
2022-11-28T05:26:38.762Z,4.86
2022-11-28T05:29:06.925Z,4.92
2022-11-28T05:31:34.680Z,4.89
2022-11-28T05:34:02.341Z,4.84
2022-11-28T05:36:30.000Z,5.09
2022-11-28T05:38:57.613Z,4.93
2022-11-28T05:41:28.083Z,4.90
2022-11-28T05:43:56.932Z,4.92
2022-11-28T05:46:25.039Z,5.09
2022-11-28T05:48:53.016Z,5.18
2022-11-28T05:51:20.797Z,4.92
2022-11-28T05:53:48.493Z,4.78
2022-11-28T05:56:17.692Z,4.69
2022-11-28T05:58:47.087Z,4.68
2022-11-28T06:01:17.744Z,4.63
2022-11-28T06:03:45.683Z,4.60
2022-11-28T06:06:15.964Z,4.55
2022-11-28T06:08:44.283Z,4.53
2022-11-28T06:11:14.578Z,4.57
2022-11-28T06:13:43.174Z,4.67
2022-11-28T06:16:14.123Z,4.69
2022-11-28T06:18:42.228Z,4.65
2022-11-28T06:21:11.098Z,5.01
2022-11-28T06:23:39.384Z,4.89
2022-11-28T06:26:08.526Z,4.94
2022-11-28T06:28:36.906Z,4.94
2022-11-28T06:31:05.285Z,4.89
2022-11-28T06:33:34.246Z,5.10
2022-11-28T06:36:02.453Z,5.54
2022-11-28T06:38:30.429Z,5.45
2022-11-28T06:40:59.020Z,5.60
2022-11-28T06:43:26.914Z,5.59
2022-11-28T06:45:55.117Z,5.49
2022-11-28T06:48:23.303Z,5.54
2022-11-28T06:50:53.326Z,5.54
2022-11-28T06:53:21.181Z,5.61
2022-11-28T06:55:48.816Z,5.58
2022-11-28T06:58:16.441Z,5.60
2022-11-28T07:00:45.233Z,5.62
2022-11-28T07:03:13.324Z,5.63
2022-11-28T07:05:40.984Z,5.59
2022-11-28T07:08:09.996Z,5.66
2022-11-28T07:10:38.005Z,5.66
2022-11-28T07:13:05.888Z,5.69
2022-11-28T07:15:33.585Z,5.74
2022-11-28T07:18:01.240Z,5.58
2022-11-28T07:20:28.918Z,5.54
2022-11-28T07:22:56.607Z,5.36
2022-11-28T07:25:25.587Z,5.41
2022-11-28T07:27:53.182Z,5.61
2022-11-28T07:30:21.076Z,5.63
2022-11-28T07:32:48.802Z,5.37
2022-11-28T07:35:16.511Z,5.20
2022-11-28T07:37:44.199Z,5.18
2022-11-28T07:40:13.557Z,5.20
2022-11-28T07:42:42.620Z,5.16
2022-11-28T07:45:11.879Z,5.16
2022-11-28T07:47:39.510Z,5.16
2022-11-28T07:50:08.393Z,5.73
2022-11-28T07:52:36.090Z,5.63
2022-11-28T07:55:03.975Z,5.62
2022-11-28T07:57:31.612Z,5.82
2022-11-28T08:00:00.681Z,5.71
2022-11-28T08:02:32.335Z,5.50
2022-11-28T08:05:00.850Z,5.70
2022-11-28T08:07:28.525Z,5.62
2022-11-28T08:09:56.203Z,5.81
2022-11-28T08:12:23.851Z,5.81
2022-11-28T08:14:51.493Z,5.68
2022-11-28T08:17:20.563Z,5.62
2022-11-28T08:19:48.243Z,5.51
2022-11-28T08:22:15.913Z,5.89
2022-11-28T08:24:43.747Z,5.92
2022-11-28T08:27:11.679Z,6.11
2022-11-28T08:29:39.314Z,6.22
2022-11-28T08:32:07.072Z,6.11
2022-11-28T08:34:36.117Z,5.92
2022-11-28T08:37:03.790Z,5.76
2022-11-28T08:39:32.064Z,5.66
2022-11-28T08:41:59.806Z,5.90
2022-11-28T08:44:31.141Z,6.13
2022-11-28T08:46:58.862Z,5.84
2022-11-28T08:49:26.773Z,5.78
2022-11-28T08:51:55.884Z,5.68
2022-11-28T08:54:23.616Z,5.58
2022-11-28T08:56:51.266Z,5.52
2022-11-28T08:59:19.082Z,5.64
2022-11-28T09:01:46.778Z,5.57
2022-11-28T09:04:14.435Z,6.06
2022-11-28T09:06:42.211Z,6.13
2022-11-28T09:09:11.186Z,6.26
2022-11-28T09:11:39.446Z,6.03
2022-11-28T09:14:07.564Z,5.85
2022-11-28T09:16:35.589Z,5.78
2022-11-28T09:19:03.349Z,5.70
2022-11-28T09:21:30.988Z,5.68
2022-11-28T09:23:58.604Z,5.70
2022-11-28T09:26:27.667Z,5.70
2022-11-28T09:28:55.674Z,5.82
2022-11-28T09:31:23.706Z,5.87
2022-11-28T09:33:51.434Z,6.34
2022-11-28T09:36:20.874Z,6.36
2022-11-28T09:38:49.343Z,6.17
2022-11-28T09:41:32.868Z,6.11
2022-11-28T09:44:04.400Z,6.00
2022-11-28T09:46:37.667Z,6.05
2022-11-28T09:49:18.656Z,6.03
2022-11-28T09:51:52.477Z,6.22
2022-11-28T09:54:26.516Z,6.33
2022-11-28T09:56:57.603Z,6.81
2022-11-28T09:59:27.520Z,6.79
2022-11-28T10:02:05.917Z,6.53
2022-11-28T10:04:42.525Z,6.34
2022-11-28T10:07:20.158Z,6.22
2022-11-28T10:09:56.130Z,6.15
2022-11-28T10:12:40.812Z,6.27
2022-11-28T10:15:29.298Z,6.22
2022-11-28T10:18:08.991Z,6.18
2022-11-28T10:20:40.347Z,6.17
2022-11-28T10:23:15.811Z,6.15
2022-11-28T10:25:48.381Z,6.14
2022-11-28T10:28:20.948Z,6.16
2022-11-28T10:30:52.394Z,6.20
2022-11-28T10:33:25.395Z,6.32
2022-11-28T10:35:56.624Z,6.32
2022-11-28T10:38:27.787Z,6.33
2022-11-28T10:41:00.426Z,6.72
2022-11-28T10:43:38.148Z,7.01
2022-11-28T10:46:26.223Z,7.08
2022-11-28T10:49:00.904Z,7.18
2022-11-28T10:51:46.162Z,7.00
2022-11-28T10:54:26.561Z,7.21
2022-11-28T10:57:04.120Z,7.27
2022-11-28T10:59:49.221Z,7.51
2022-11-28T11:02:22.045Z,7.41
2022-11-28T11:04:49.780Z,7.20
2022-11-28T11:07:29.159Z,7.01
2022-11-28T11:10:01.091Z,6.88
2022-11-28T11:12:32.400Z,6.79
2022-11-28T11:15:16.896Z,6.71
2022-11-28T11:17:44.730Z,6.68
2022-11-28T11:20:34.514Z,6.88
2022-11-28T11:23:12.084Z,7.14
2022-11-28T11:25:47.763Z,7.20
2022-11-28T11:28:29.367Z,7.57
2022-11-28T11:31:03.545Z,7.43
2022-11-28T11:33:37.822Z,7.43
2022-11-28T11:36:25.695Z,7.55
2022-11-28T11:39:04.979Z,7.39
2022-11-28T11:41:33.068Z,7.27
2022-11-28T11:44:30.323Z,7.16
2022-11-28T11:47:05.244Z,7.08
2022-11-28T11:49:35.826Z,7.10
2022-11-28T11:52:06.247Z,7.47
2022-11-28T11:54:34.223Z,7.59
2022-11-28T11:57:31.509Z,7.71
2022-11-28T11:59:54.221Z,7.55
2022-11-28T12:02:32.455Z,7.42
2022-11-28T12:05:03.991Z,7.32
2022-11-28T12:07:38.019Z,7.28
2022-11-28T12:10:10.767Z,7.24
2022-11-28T12:12:39.036Z,7.23
2022-11-28T12:15:16.532Z,7.21
2022-11-28T12:20:59.350Z,7.17
2022-11-28T12:23:41.634Z,7.15
2022-11-28T12:26:18.536Z,7.14
2022-11-28T12:29:06.061Z,7.15
2022-11-28T12:31:46.249Z,7.17
2022-11-28T12:34:29.670Z,7.17
2022-11-28T12:37:07.470Z,7.17
2022-11-28T12:39:51.536Z,7.21
2022-11-28T12:42:30.490Z,7.35
2022-11-28T12:45:14.814Z,7.43
2022-11-28T12:47:54.895Z,7.37
2022-11-28T12:50:37.507Z,7.34
2022-11-28T12:53:22.230Z,7.31
2022-11-28T12:55:55.334Z,7.29
2022-11-28T12:58:25.756Z,7.28
2022-11-28T13:01:05.552Z,7.29
2022-11-28T13:03:42.376Z,7.30
2022-11-28T13:06:24.696Z,7.30
2022-11-28T13:09:21.597Z,7.31
2022-11-28T13:12:05.080Z,7.30
2022-11-28T13:14:42.382Z,7.30
2022-11-28T13:17:20.400Z,7.31
2022-11-28T13:19:53.629Z,7.31
2022-11-28T13:22:25.747Z,7.33
2022-11-28T13:25:01.701Z,7.32
2022-11-28T13:27:37.917Z,7.32
2022-11-28T13:30:17.994Z,7.32
2022-11-28T13:32:48.905Z,7.31
2022-11-28T13:35:18.629Z,7.31
2022-11-28T13:40:49.273Z,7.30
2022-11-28T13:43:24.324Z,7.31
2022-11-28T13:45:52.555Z,7.30
2022-11-28T13:51:41.247Z,7.31
2022-11-28T13:54:43.118Z,7.32
2022-11-28T13:57:27.677Z,7.32
2022-11-28T13:59:59.651Z,7.40
2022-11-28T14:02:36.362Z,7.55
2022-11-28T14:05:06.018Z,7.52
2022-11-28T14:07:36.078Z,7.50
2022-11-28T14:10:24.383Z,7.47
2022-11-28T14:13:05.680Z,7.44
2022-11-28T14:15:42.100Z,7.43
2022-11-28T14:18:55.755Z,7.46
2022-11-28T14:21:26.777Z,7.44
2022-11-28T14:24:03.542Z,7.42
2022-11-28T14:26:35.444Z,7.43
2022-11-28T14:29:05.751Z,7.43
2022-11-28T14:31:36.655Z,7.43
2022-11-28T14:34:06.920Z,7.41
2022-11-28T14:36:36.175Z,7.42
2022-11-28T14:39:12.846Z,7.40
2022-11-28T14:42:43.868Z,7.40
2022-11-28T14:45:43.543Z,7.40
2022-11-28T14:48:30.535Z,7.59
2022-11-28T14:51:01.798Z,7.71
2022-11-28T14:53:45.374Z,8.02
2022-11-28T14:56:24.971Z,8.52
2022-11-28T14:58:57.837Z,8.62
2022-11-28T15:01:42.447Z,8.59
2022-11-28T15:04:27.497Z,8.63
2022-11-28T15:06:56.136Z,8.43
2022-11-28T15:09:31.552Z,8.64
2022-11-28T15:12:13.414Z,8.56
2022-11-28T15:14:41.681Z,8.68
2022-11-28T15:17:14.869Z,8.69
2022-11-28T15:19:47.682Z,8.52
2022-11-28T15:22:31.931Z,8.62
2022-11-28T15:25:00.120Z,8.45
2022-11-28T15:27:28.694Z,8.29
2022-11-28T15:29:57.892Z,8.31
2022-11-28T15:32:29.023Z,8.26
2022-11-28T15:35:00.960Z,8.25
2022-11-28T15:37:31.061Z,8.23
2022-11-28T15:40:00.281Z,8.40
2022-11-28T15:42:30.429Z,8.26
2022-11-28T15:45:04.920Z,8.34
2022-11-28T15:47:34.169Z,8.13
2022-11-28T15:50:05.522Z,7.99
2022-11-28T15:52:33.288Z,8.15
2022-11-28T15:55:00.907Z,8.43
2022-11-28T15:57:32.338Z,8.61
2022-11-28T16:00:00.052Z,8.71
2022-11-28T16:02:32.557Z,8.43
2022-11-28T16:05:08.775Z,8.19
2022-11-28T16:07:41.884Z,8.03
2022-11-28T16:10:22.536Z,7.92
2022-11-28T16:12:51.477Z,7.85
2022-11-28T16:15:21.344Z,7.86
2022-11-28T16:17:49.751Z,7.80
2022-11-28T16:20:24.978Z,7.76
2022-11-28T16:22:59.371Z,7.75
2022-11-28T16:25:28.591Z,7.77
2022-11-28T16:27:57.494Z,7.76
2022-11-28T16:30:34.703Z,7.75
2022-11-28T16:33:02.388Z,7.73
2022-11-28T16:35:37.739Z,7.72
2022-11-28T16:38:07.577Z,7.72
2022-11-28T16:40:35.265Z,7.71
2022-11-28T16:43:04.916Z,7.72
2022-11-28T16:45:34.044Z,7.70
2022-11-28T16:48:08.650Z,7.69
2022-11-28T16:50:38.362Z,7.69
2022-11-28T16:53:06.266Z,7.70
2022-11-28T16:55:46.061Z,7.70
2022-11-28T16:58:23.693Z,7.77
2022-11-28T17:01:03.635Z,7.76
2022-11-28T17:03:46.491Z,8.29
2022-11-28T17:06:24.995Z,8.46
2022-11-28T17:08:52.850Z,8.26
2022-11-28T17:11:23.759Z,8.35
2022-11-28T17:13:51.880Z,8.47
2022-11-28T17:16:22.053Z,8.45
2022-11-28T17:18:50.654Z,8.20
2022-11-28T17:21:27.137Z,8.02
2022-11-28T17:23:56.513Z,7.91
2022-11-28T17:26:24.130Z,7.89
2022-11-28T17:28:51.884Z,7.80
2022-11-28T17:31:24.630Z,7.76
2022-11-28T17:33:52.308Z,7.71
2022-11-28T17:36:19.895Z,7.68
2022-11-28T17:38:47.485Z,7.67
2022-11-28T17:41:16.701Z,7.65
2022-11-28T17:43:44.487Z,7.64
2022-11-28T17:46:13.693Z,7.64
2022-11-28T17:48:41.729Z,7.63
2022-11-28T17:51:11.500Z,7.62
2022-11-28T17:53:39.286Z,7.63
2022-11-28T17:56:07.704Z,7.62
2022-11-28T17:58:40.047Z,7.63
2022-11-28T18:01:11.014Z,7.63
2022-11-28T18:03:38.769Z,7.63
2022-11-28T18:06:07.398Z,7.63
2022-11-28T18:08:35.004Z,7.62
2022-11-28T18:11:04.652Z,7.63
2022-11-28T18:13:32.905Z,7.62
2022-11-28T18:16:03.097Z,7.63
2022-11-28T18:18:32.019Z,7.65
2022-11-28T18:21:00.467Z,7.65
2022-11-28T18:23:28.124Z,7.64
2022-11-28T18:25:59.787Z,7.66
2022-11-28T18:28:27.395Z,7.65
2022-11-28T18:30:55.354Z,7.65
2022-11-28T18:33:24.369Z,7.66
2022-11-28T18:35:52.395Z,7.66
2022-11-28T18:38:20.058Z,7.66
2022-11-28T18:40:47.669Z,7.66
2022-11-28T18:43:15.280Z,7.67
2022-11-28T18:45:42.949Z,7.68
2022-11-28T18:48:10.590Z,7.68
2022-11-28T18:50:39.539Z,7.66
2022-11-28T18:53:07.147Z,7.66
2022-11-28T18:55:34.815Z,7.65
2022-11-28T18:58:02.387Z,7.66
2022-11-28T19:00:29.996Z,7.66
2022-11-28T19:02:57.672Z,7.71
2022-11-28T19:05:25.250Z,7.77
2022-11-28T19:07:54.202Z,7.75
2022-11-28T19:10:21.841Z,7.78
2022-11-28T19:12:49.435Z,8.35
2022-11-28T19:15:17.110Z,8.32
2022-11-28T19:17:44.769Z,8.14
2022-11-28T19:20:13.465Z,7.97
2022-11-28T19:22:41.092Z,7.92
2022-11-28T19:25:10.818Z,7.84
2022-11-28T19:27:38.437Z,7.80
2022-11-28T19:30:07.637Z,7.74
2022-11-28T19:32:36.252Z,7.75
2022-11-28T19:35:03.991Z,7.77
2022-11-28T19:37:31.861Z,7.81
2022-11-28T19:40:02.584Z,7.77
2022-11-28T19:42:32.082Z,7.76
2022-11-28T19:44:59.831Z,7.73
2022-11-28T19:47:27.495Z,7.71
2022-11-28T19:49:55.142Z,7.71
2022-11-28T19:52:22.725Z,7.69
2022-11-28T19:54:50.344Z,7.68
2022-11-28T19:57:18.492Z,7.69
2022-11-28T19:59:47.498Z,7.69
2022-11-28T20:02:15.408Z,7.73
2022-11-28T20:04:43.512Z,7.75
2022-11-28T20:07:11.090Z,7.74
2022-11-28T20:09:38.905Z,7.73
2022-11-28T20:12:06.931Z,7.68
2022-11-28T20:14:34.725Z,7.68
2022-11-28T20:17:03.823Z,8.19
2022-11-28T20:19:31.708Z,8.12
2022-11-28T20:22:00.569Z,8.03
2022-11-28T20:24:30.156Z,7.94
2022-11-28T20:26:57.917Z,7.83
2022-11-28T20:29:27.895Z,7.73
2022-11-28T20:31:57.115Z,7.67
2022-11-28T20:34:27.070Z,7.63
2022-11-28T20:36:54.845Z,7.62
2022-11-28T20:39:23.192Z,7.59
2022-11-28T20:41:50.833Z,7.59
2022-11-28T20:44:18.967Z,7.65
2022-11-28T20:46:49.464Z,7.67
2022-11-28T20:49:17.863Z,7.64
2022-11-28T20:51:47.361Z,7.74
2022-11-28T20:54:15.409Z,7.69
2022-11-28T20:57:19.013Z,7.68
2022-11-28T20:59:32.387Z,7.67
2022-11-28T21:02:00.038Z,7.65
2022-11-28T21:04:28.007Z,7.64
2022-11-28T21:06:56.952Z,7.65
2022-11-28T21:09:24.813Z,7.64
2022-11-28T21:11:57.964Z,7.61
2022-11-28T21:14:27.639Z,7.59
2022-11-28T21:16:55.495Z,7.57
2022-11-28T21:19:24.107Z,7.56
2022-11-28T21:21:52.274Z,7.55
2022-11-28T21:24:22.591Z,7.54
2022-11-28T21:26:54.021Z,7.53
2022-11-28T21:29:23.760Z,7.67
2022-11-28T21:31:52.424Z,7.81
2022-11-28T21:34:20.750Z,7.79
2022-11-28T21:36:49.170Z,7.73
2022-11-28T21:39:23.100Z,7.68
2022-11-28T21:41:53.054Z,7.64
2022-11-28T21:44:21.384Z,7.65
2022-11-28T21:46:49.497Z,7.62
2022-11-28T21:49:17.157Z,7.61
2022-11-28T21:51:45.013Z,7.61
2022-11-28T21:54:13.571Z,7.62
2022-11-28T21:56:41.987Z,7.64
2022-11-28T21:59:11.333Z,7.66
2022-11-28T22:01:39.737Z,7.66
2022-11-28T22:04:08.434Z,7.67
2022-11-28T22:06:36.523Z,7.74
2022-11-28T22:09:09.519Z,7.88
2022-11-28T22:11:38.714Z,8.01
2022-11-28T22:14:07.114Z,8.19
2022-11-28T22:16:36.918Z,8.19
2022-11-28T22:19:05.843Z,8.15
2022-11-28T22:24:21.449Z,8.02
2022-11-28T22:26:49.097Z,8.04
2022-11-28T22:29:16.796Z,8.09
2022-11-28T22:31:45.882Z,8.03
2022-11-28T22:34:13.554Z,8.05
2022-11-28T22:36:41.295Z,8.04
2022-11-28T22:39:08.931Z,8.01
2022-11-28T22:41:36.535Z,7.99
2022-11-28T22:44:04.790Z,8.10
2022-11-28T22:46:33.802Z,8.12
2022-11-28T22:49:03.548Z,8.04
2022-11-28T22:51:32.030Z,8.04
2022-11-28T22:54:01.515Z,8.08
2022-11-28T22:56:30.443Z,8.09
2022-11-28T22:58:58.197Z,8.07
2022-11-28T23:01:27.706Z,8.14
2022-11-28T23:03:55.953Z,8.10
2022-11-28T23:06:27.145Z,8.01
2022-11-28T23:08:55.700Z,7.96
2022-11-28T23:11:25.406Z,8.01
2022-11-28T23:13:53.472Z,8.17
2022-11-28T23:16:23.360Z,8.20
2022-11-28T23:18:52.851Z,8.42
2022-11-28T23:21:21.838Z,8.53
2022-11-28T23:23:51.410Z,8.64
2022-11-28T23:26:21.168Z,8.52
2022-11-28T23:28:49.411Z,8.72
2022-11-28T23:31:18.594Z,8.92
2022-11-28T23:33:46.911Z,8.99
2022-11-28T23:36:15.792Z,8.91
2022-11-28T23:38:44.222Z,8.80
2022-11-28T23:41:13.542Z,8.70
2022-11-28T23:43:42.169Z,8.74
2022-11-28T23:46:11.127Z,8.62
2022-11-28T23:48:38.939Z,8.58
2022-11-28T23:51:07.493Z,8.48
2022-11-28T23:53:35.469Z,8.35
2022-11-28T23:56:04.757Z,8.30
2022-11-28T23:58:35.048Z,8.34
